sensor_id;sensor_type;location;lat;lon;timestamp;P1;durP1;ratioP1;P2;durP2;ratioP2
67585;SDS011;55785;47.946;20.540;2023-05-03T00:01:21;4.68;;;2.90;;
67585;SDS011;55785;47.946;20.540;2023-05-03T00:03:46;3.70;;;2.28;;
67585;SDS011;55785;47.946;20.540;2023-05-03T00:06:12;7.00;;;2.63;;
67585;SDS011;55785;47.946;20.540;2023-05-03T00:08:38;5.88;;;2.60;;
67585;SDS011;55785;47.946;20.540;2023-05-03T00:11:04;5.28;;;2.95;;
67585;SDS011;55785;47.946;20.540;2023-05-03T00:13:29;5.90;;;2.80;;
67585;SDS011;55785;47.946;20.540;2023-05-03T00:15:55;3.58;;;2.70;;
67585;SDS011;55785;47.946;20.540;2023-05-03T00:18:20;5.22;;;2.88;;
67585;SDS011;55785;47.946;20.540;2023-05-03T00:20:45;5.97;;;2.90;;
67585;SDS011;55785;47.946;20.540;2023-05-03T00:23:11;5.80;;;2.67;;
67585;SDS011;55785;47.946;20.540;2023-05-03T00:25:36;4.97;;;2.85;;
67585;SDS011;55785;47.946;20.540;2023-05-03T00:28:02;4.63;;;2.55;;
67585;SDS011;55785;47.946;20.540;2023-05-03T00:30:27;4.45;;;2.78;;
67585;SDS011;55785;47.946;20.540;2023-05-03T00:32:52;3.88;;;2.50;;
67585;SDS011;55785;47.946;20.540;2023-05-03T00:35:18;4.65;;;2.60;;
67585;SDS011;55785;47.946;20.540;2023-05-03T00:37:43;5.93;;;2.40;;
67585;SDS011;55785;47.946;20.540;2023-05-03T00:40:09;5.47;;;2.50;;
67585;SDS011;55785;47.946;20.540;2023-05-03T00:42:35;3.92;;;2.60;;
67585;SDS011;55785;47.946;20.540;2023-05-03T00:45:00;3.67;;;2.38;;
67585;SDS011;55785;47.946;20.540;2023-05-03T00:47:25;5.50;;;2.78;;
67585;SDS011;55785;47.946;20.540;2023-05-03T00:49:51;6.10;;;2.70;;
67585;SDS011;55785;47.946;20.540;2023-05-03T00:52:16;4.95;;;2.70;;
67585;SDS011;55785;47.946;20.540;2023-05-03T00:54:42;3.75;;;2.35;;
67585;SDS011;55785;47.946;20.540;2023-05-03T00:57:08;3.20;;;2.30;;
67585;SDS011;55785;47.946;20.540;2023-05-03T00:59:33;3.97;;;2.50;;
67585;SDS011;55785;47.946;20.540;2023-05-03T01:01:59;3.10;;;2.50;;
67585;SDS011;55785;47.946;20.540;2023-05-03T01:04:24;3.00;;;2.55;;
67585;SDS011;55785;47.946;20.540;2023-05-03T01:07:13;3.45;;;2.30;;
67585;SDS011;55785;47.946;20.540;2023-05-03T01:12:46;3.30;;;2.30;;
67585;SDS011;55785;47.946;20.540;2023-05-03T01:17:56;4.55;;;2.10;;
67585;SDS011;55785;47.946;20.540;2023-05-03T01:20:25;7.47;;;2.47;;
67585;SDS011;55785;47.946;20.540;2023-05-03T01:25:22;3.22;;;2.38;;
67585;SDS011;55785;47.946;20.540;2023-05-03T01:27:47;3.97;;;2.47;;
67585;SDS011;55785;47.946;20.540;2023-05-03T01:30:13;3.10;;;2.30;;
67585;SDS011;55785;47.946;20.540;2023-05-03T01:35:29;3.78;;;2.35;;
67585;SDS011;55785;47.946;20.540;2023-05-03T01:38:01;4.45;;;2.83;;
67585;SDS011;55785;47.946;20.540;2023-05-03T01:40:28;5.72;;;2.70;;
67585;SDS011;55785;47.946;20.540;2023-05-03T01:42:56;3.80;;;2.40;;
67585;SDS011;55785;47.946;20.540;2023-05-03T01:45:22;4.72;;;2.20;;
67585;SDS011;55785;47.946;20.540;2023-05-03T01:47:49;3.22;;;2.35;;
67585;SDS011;55785;47.946;20.540;2023-05-03T01:50:15;3.65;;;2.35;;
67585;SDS011;55785;47.946;20.540;2023-05-03T01:52:40;5.38;;;2.53;;
67585;SDS011;55785;47.946;20.540;2023-05-03T01:55:06;5.35;;;2.63;;
67585;SDS011;55785;47.946;20.540;2023-05-03T01:57:31;4.45;;;2.53;;
67585;SDS011;55785;47.946;20.540;2023-05-03T01:59:57;3.33;;;2.33;;
67585;SDS011;55785;47.946;20.540;2023-05-03T02:02:22;3.92;;;2.30;;
67585;SDS011;55785;47.946;20.540;2023-05-03T02:04:48;5.60;;;2.70;;
67585;SDS011;55785;47.946;20.540;2023-05-03T02:07:13;3.55;;;2.63;;
67585;SDS011;55785;47.946;20.540;2023-05-03T02:09:39;5.72;;;2.75;;
67585;SDS011;55785;47.946;20.540;2023-05-03T02:12:04;4.75;;;2.30;;
67585;SDS011;55785;47.946;20.540;2023-05-03T02:14:30;6.65;;;2.90;;
67585;SDS011;55785;47.946;20.540;2023-05-03T02:16:55;3.20;;;2.70;;
67585;SDS011;55785;47.946;20.540;2023-05-03T02:19:21;3.65;;;2.42;;
67585;SDS011;55785;47.946;20.540;2023-05-03T02:21:46;3.25;;;2.50;;
67585;SDS011;55785;47.946;20.540;2023-05-03T02:24:11;4.85;;;2.55;;
67585;SDS011;55785;47.946;20.540;2023-05-03T02:26:37;4.80;;;2.83;;
67585;SDS011;55785;47.946;20.540;2023-05-03T02:29:02;3.10;;;2.30;;
67585;SDS011;55785;47.946;20.540;2023-05-03T02:31:27;3.17;;;2.55;;
67585;SDS011;55785;47.946;20.540;2023-05-03T02:33:53;8.13;;;3.05;;
67585;SDS011;55785;47.946;20.540;2023-05-03T02:36:18;4.75;;;2.53;;
67585;SDS011;55785;47.946;20.540;2023-05-03T02:38:43;8.57;;;2.75;;
67585;SDS011;55785;47.946;20.540;2023-05-03T02:41:09;4.22;;;2.70;;
67585;SDS011;55785;47.946;20.540;2023-05-03T02:43:34;5.18;;;2.90;;
67585;SDS011;55785;47.946;20.540;2023-05-03T02:45:59;5.68;;;2.80;;
67585;SDS011;55785;47.946;20.540;2023-05-03T02:48:25;4.55;;;2.78;;
67585;SDS011;55785;47.946;20.540;2023-05-03T02:50:50;3.15;;;2.70;;
67585;SDS011;55785;47.946;20.540;2023-05-03T02:53:15;6.00;;;2.90;;
67585;SDS011;55785;47.946;20.540;2023-05-03T02:55:41;4.70;;;2.80;;
67585;SDS011;55785;47.946;20.540;2023-05-03T02:58:07;5.13;;;2.80;;
67585;SDS011;55785;47.946;20.540;2023-05-03T03:00:32;5.55;;;2.90;;
67585;SDS011;55785;47.946;20.540;2023-05-03T03:02:58;4.80;;;2.90;;
67585;SDS011;55785;47.946;20.540;2023-05-03T03:05:23;3.75;;;2.78;;
67585;SDS011;55785;47.946;20.540;2023-05-03T03:07:49;4.78;;;2.80;;
67585;SDS011;55785;47.946;20.540;2023-05-03T03:10:14;3.92;;;2.70;;
67585;SDS011;55785;47.946;20.540;2023-05-03T03:12:40;3.58;;;2.50;;
67585;SDS011;55785;47.946;20.540;2023-05-03T03:15:05;4.07;;;2.30;;
67585;SDS011;55785;47.946;20.540;2023-05-03T03:17:31;5.40;;;2.60;;
67585;SDS011;55785;47.946;20.540;2023-05-03T03:19:56;3.30;;;2.50;;
67585;SDS011;55785;47.946;20.540;2023-05-03T03:22:22;3.95;;;2.65;;
67585;SDS011;55785;47.946;20.540;2023-05-03T03:24:47;3.15;;;2.70;;
67585;SDS011;55785;47.946;20.540;2023-05-03T03:27:12;2.83;;;2.38;;
67585;SDS011;55785;47.946;20.540;2023-05-03T03:29:38;4.35;;;2.47;;
67585;SDS011;55785;47.946;20.540;2023-05-03T03:32:03;3.95;;;2.40;;
67585;SDS011;55785;47.946;20.540;2023-05-03T03:34:29;3.08;;;2.40;;
67585;SDS011;55785;47.946;20.540;2023-05-03T03:36:54;4.38;;;2.40;;
67585;SDS011;55785;47.946;20.540;2023-05-03T03:39:19;2.53;;;2.33;;
67585;SDS011;55785;47.946;20.540;2023-05-03T03:41:45;3.90;;;2.40;;
67585;SDS011;55785;47.946;20.540;2023-05-03T03:44:10;2.83;;;2.50;;
67585;SDS011;55785;47.946;20.540;2023-05-03T03:46:36;3.78;;;2.20;;
67585;SDS011;55785;47.946;20.540;2023-05-03T03:49:01;4.07;;;2.30;;
67585;SDS011;55785;47.946;20.540;2023-05-03T03:51:26;3.33;;;1.92;;
67585;SDS011;55785;47.946;20.540;2023-05-03T03:53:52;3.40;;;2.22;;
67585;SDS011;55785;47.946;20.540;2023-05-03T03:56:17;3.42;;;2.20;;
67585;SDS011;55785;47.946;20.540;2023-05-03T03:58:42;3.88;;;2.10;;
67585;SDS011;55785;47.946;20.540;2023-05-03T04:01:08;3.03;;;2.20;;
67585;SDS011;55785;47.946;20.540;2023-05-03T04:03:33;3.40;;;2.50;;
67585;SDS011;55785;47.946;20.540;2023-05-03T04:05:58;3.80;;;2.35;;
67585;SDS011;55785;47.946;20.540;2023-05-03T04:08:24;3.55;;;2.30;;
67585;SDS011;55785;47.946;20.540;2023-05-03T04:10:49;3.42;;;2.30;;
67585;SDS011;55785;47.946;20.540;2023-05-03T04:13:15;3.45;;;2.50;;
67585;SDS011;55785;47.946;20.540;2023-05-03T04:15:40;3.65;;;2.38;;
67585;SDS011;55785;47.946;20.540;2023-05-03T04:18:05;3.45;;;2.28;;
67585;SDS011;55785;47.946;20.540;2023-05-03T04:20:31;3.20;;;2.30;;
67585;SDS011;55785;47.946;20.540;2023-05-03T04:22:56;3.17;;;2.40;;
67585;SDS011;55785;47.946;20.540;2023-05-03T04:25:21;4.43;;;2.60;;
67585;SDS011;55785;47.946;20.540;2023-05-03T04:27:47;2.90;;;2.40;;
67585;SDS011;55785;47.946;20.540;2023-05-03T04:30:12;3.83;;;2.50;;
67585;SDS011;55785;47.946;20.540;2023-05-03T04:32:38;3.72;;;2.40;;
67585;SDS011;55785;47.946;20.540;2023-05-03T04:35:03;2.90;;;2.30;;
67585;SDS011;55785;47.946;20.540;2023-05-03T04:37:29;9.50;;;5.45;;
67585;SDS011;55785;47.946;20.540;2023-05-03T04:39:54;7.82;;;3.80;;
67585;SDS011;55785;47.946;20.540;2023-05-03T04:42:19;12.50;;;8.52;;
67585;SDS011;55785;47.946;20.540;2023-05-03T04:44:45;8.60;;;5.75;;
67585;SDS011;55785;47.946;20.540;2023-05-03T04:47:10;6.93;;;4.57;;
67585;SDS011;55785;47.946;20.540;2023-05-03T04:49:35;5.03;;;3.85;;
67585;SDS011;55785;47.946;20.540;2023-05-03T04:52:01;3.40;;;2.60;;
67585;SDS011;55785;47.946;20.540;2023-05-03T04:54:26;3.65;;;2.60;;
67585;SDS011;55785;47.946;20.540;2023-05-03T04:56:52;4.40;;;2.70;;
67585;SDS011;55785;47.946;20.540;2023-05-03T04:59:17;4.38;;;2.60;;
67585;SDS011;55785;47.946;20.540;2023-05-03T05:01:43;4.47;;;2.58;;
67585;SDS011;55785;47.946;20.540;2023-05-03T05:04:08;4.30;;;2.50;;
67585;SDS011;55785;47.946;20.540;2023-05-03T05:06:34;5.13;;;2.50;;
67585;SDS011;55785;47.946;20.540;2023-05-03T05:08:59;2.60;;;2.30;;
67585;SDS011;55785;47.946;20.540;2023-05-03T05:11:24;2.92;;;2.13;;
67585;SDS011;55785;47.946;20.540;2023-05-03T05:13:50;2.53;;;2.00;;
67585;SDS011;55785;47.946;20.540;2023-05-03T05:16:15;2.92;;;2.08;;
67585;SDS011;55785;47.946;20.540;2023-05-03T05:18:40;2.22;;;1.90;;
67585;SDS011;55785;47.946;20.540;2023-05-03T05:21:06;3.20;;;1.80;;
67585;SDS011;55785;47.946;20.540;2023-05-03T05:23:31;2.33;;;1.67;;
67585;SDS011;55785;47.946;20.540;2023-05-03T05:25:56;1.92;;;1.70;;
67585;SDS011;55785;47.946;20.540;2023-05-03T05:28:22;2.15;;;1.85;;
67585;SDS011;55785;47.946;20.540;2023-05-03T05:30:47;2.10;;;1.80;;
67585;SDS011;55785;47.946;20.540;2023-05-03T05:33:12;3.78;;;1.70;;
67585;SDS011;55785;47.946;20.540;2023-05-03T05:35:38;1.63;;;1.40;;
67585;SDS011;55785;47.946;20.540;2023-05-03T05:38:03;2.67;;;1.70;;
67585;SDS011;55785;47.946;20.540;2023-05-03T05:40:28;2.15;;;1.65;;
67585;SDS011;55785;47.946;20.540;2023-05-03T05:42:54;2.70;;;1.80;;
67585;SDS011;55785;47.946;20.540;2023-05-03T05:45:19;2.08;;;1.67;;
67585;SDS011;55785;47.946;20.540;2023-05-03T05:47:44;2.33;;;1.67;;
67585;SDS011;55785;47.946;20.540;2023-05-03T05:50:09;1.80;;;1.60;;
67585;SDS011;55785;47.946;20.540;2023-05-03T05:52:35;1.95;;;1.67;;
67585;SDS011;55785;47.946;20.540;2023-05-03T05:55:00;3.08;;;1.80;;
67585;SDS011;55785;47.946;20.540;2023-05-03T05:57:25;2.03;;;1.58;;
67585;SDS011;55785;47.946;20.540;2023-05-03T05:59:51;2.40;;;1.80;;
67585;SDS011;55785;47.946;20.540;2023-05-03T06:02:16;2.78;;;1.63;;
67585;SDS011;55785;47.946;20.540;2023-05-03T06:04:42;2.67;;;1.77;;
67585;SDS011;55785;47.946;20.540;2023-05-03T06:07:09;2.00;;;1.80;;
67585;SDS011;55785;47.946;20.540;2023-05-03T06:09:34;2.55;;;2.13;;
67585;SDS011;55785;47.946;20.540;2023-05-03T06:11:59;2.45;;;1.58;;
67585;SDS011;55785;47.946;20.540;2023-05-03T06:14:25;2.25;;;1.70;;
67585;SDS011;55785;47.946;20.540;2023-05-03T06:16:50;2.13;;;1.60;;
67585;SDS011;55785;47.946;20.540;2023-05-03T06:19:15;2.25;;;1.70;;
67585;SDS011;55785;47.946;20.540;2023-05-03T06:21:41;2.38;;;1.60;;
67585;SDS011;55785;47.946;20.540;2023-05-03T06:24:06;2.47;;;1.80;;
67585;SDS011;55785;47.946;20.540;2023-05-03T06:26:31;2.72;;;1.77;;
67585;SDS011;55785;47.946;20.540;2023-05-03T06:28:57;3.63;;;1.70;;
67585;SDS011;55785;47.946;20.540;2023-05-03T06:31:22;3.80;;;1.90;;
67585;SDS011;55785;47.946;20.540;2023-05-03T06:33:47;2.00;;;1.60;;
67585;SDS011;55785;47.946;20.540;2023-05-03T06:36:13;2.53;;;1.63;;
67585;SDS011;55785;47.946;20.540;2023-05-03T06:38:38;1.70;;;1.60;;
67585;SDS011;55785;47.946;20.540;2023-05-03T06:41:04;2.20;;;1.70;;
67585;SDS011;55785;47.946;20.540;2023-05-03T06:43:29;5.15;;;1.92;;
67585;SDS011;55785;47.946;20.540;2023-05-03T06:45:54;2.17;;;1.60;;
67585;SDS011;55785;47.946;20.540;2023-05-03T06:48:20;2.38;;;1.75;;
67585;SDS011;55785;47.946;20.540;2023-05-03T06:50:45;2.75;;;1.67;;
67585;SDS011;55785;47.946;20.540;2023-05-03T06:53:11;3.10;;;1.70;;
67585;SDS011;55785;47.946;20.540;2023-05-03T06:55:36;3.80;;;2.05;;
67585;SDS011;55785;47.946;20.540;2023-05-03T06:58:01;4.28;;;2.10;;
67585;SDS011;55785;47.946;20.540;2023-05-03T07:00:27;2.60;;;1.80;;
67585;SDS011;55785;47.946;20.540;2023-05-03T07:02:52;2.83;;;1.60;;
67585;SDS011;55785;47.946;20.540;2023-05-03T07:05:17;2.53;;;1.90;;
67585;SDS011;55785;47.946;20.540;2023-05-03T07:07:43;2.10;;;1.90;;
67585;SDS011;55785;47.946;20.540;2023-05-03T07:10:08;2.95;;;1.90;;
67585;SDS011;55785;47.946;20.540;2023-05-03T07:12:33;3.20;;;2.03;;
67585;SDS011;55785;47.946;20.540;2023-05-03T07:14:59;2.17;;;1.70;;
67585;SDS011;55785;47.946;20.540;2023-05-03T07:17:24;2.40;;;2.00;;
67585;SDS011;55785;47.946;20.540;2023-05-03T07:19:50;3.28;;;2.05;;
67585;SDS011;55785;47.946;20.540;2023-05-03T07:22:16;2.75;;;1.98;;
67585;SDS011;55785;47.946;20.540;2023-05-03T07:24:41;5.00;;;1.90;;
67585;SDS011;55785;47.946;20.540;2023-05-03T07:27:07;2.10;;;1.80;;
67585;SDS011;55785;47.946;20.540;2023-05-03T07:29:32;2.25;;;1.92;;
67585;SDS011;55785;47.946;20.540;2023-05-03T07:31:58;2.70;;;1.90;;
67585;SDS011;55785;47.946;20.540;2023-05-03T07:34:23;1.90;;;1.70;;
67585;SDS011;55785;47.946;20.540;2023-05-03T07:36:49;2.33;;;2.03;;
67585;SDS011;55785;47.946;20.540;2023-05-03T07:39:14;2.67;;;1.63;;
67585;SDS011;55785;47.946;20.540;2023-05-03T07:41:40;2.90;;;1.75;;
67585;SDS011;55785;47.946;20.540;2023-05-03T07:44:05;2.42;;;1.80;;
67585;SDS011;55785;47.946;20.540;2023-05-03T07:46:30;3.13;;;1.75;;
67585;SDS011;55785;47.946;20.540;2023-05-03T07:48:57;3.08;;;1.90;;
67585;SDS011;55785;47.946;20.540;2023-05-03T07:51:22;3.80;;;1.63;;
67585;SDS011;55785;47.946;20.540;2023-05-03T07:53:48;2.53;;;1.75;;
67585;SDS011;55785;47.946;20.540;2023-05-03T07:56:13;2.10;;;1.75;;
67585;SDS011;55785;47.946;20.540;2023-05-03T07:58:38;2.20;;;1.90;;
67585;SDS011;55785;47.946;20.540;2023-05-03T08:01:04;2.00;;;1.75;;
67585;SDS011;55785;47.946;20.540;2023-05-03T08:03:29;2.45;;;1.80;;
67585;SDS011;55785;47.946;20.540;2023-05-03T08:05:54;3.17;;;2.10;;
67585;SDS011;55785;47.946;20.540;2023-05-03T08:08:20;3.03;;;2.00;;
67585;SDS011;55785;47.946;20.540;2023-05-03T08:10:45;2.00;;;1.67;;
67585;SDS011;55785;47.946;20.540;2023-05-03T08:13:10;2.78;;;1.77;;
67585;SDS011;55785;47.946;20.540;2023-05-03T08:15:35;2.15;;;1.80;;
67585;SDS011;55785;47.946;20.540;2023-05-03T08:18:01;4.10;;;1.95;;
67585;SDS011;55785;47.946;20.540;2023-05-03T08:20:26;3.15;;;1.83;;
67585;SDS011;55785;47.946;20.540;2023-05-03T08:22:52;5.18;;;1.80;;
67585;SDS011;55785;47.946;20.540;2023-05-03T08:25:17;2.78;;;2.00;;
67585;SDS011;55785;47.946;20.540;2023-05-03T08:27:43;2.50;;;1.80;;
67585;SDS011;55785;47.946;20.540;2023-05-03T08:30:08;3.10;;;2.00;;
67585;SDS011;55785;47.946;20.540;2023-05-03T08:32:33;2.65;;;1.88;;
67585;SDS011;55785;47.946;20.540;2023-05-03T08:34:59;2.72;;;2.03;;
67585;SDS011;55785;47.946;20.540;2023-05-03T08:37:24;2.45;;;1.83;;
67585;SDS011;55785;47.946;20.540;2023-05-03T08:39:49;4.07;;;2.03;;
67585;SDS011;55785;47.946;20.540;2023-05-03T08:42:15;3.95;;;2.22;;
67585;SDS011;55785;47.946;20.540;2023-05-03T08:44:44;3.10;;;1.88;;
67585;SDS011;55785;47.946;20.540;2023-05-03T08:47:12;5.55;;;1.92;;
67585;SDS011;55785;47.946;20.540;2023-05-03T08:49:38;2.22;;;1.90;;
67585;SDS011;55785;47.946;20.540;2023-05-03T08:52:05;2.80;;;1.73;;
67585;SDS011;55785;47.946;20.540;2023-05-03T08:54:30;2.75;;;2.10;;
67585;SDS011;55785;47.946;20.540;2023-05-03T08:56:55;3.33;;;2.13;;
67585;SDS011;55785;47.946;20.540;2023-05-03T08:59:21;5.65;;;1.90;;
67585;SDS011;55785;47.946;20.540;2023-05-03T09:01:46;2.95;;;2.00;;
67585;SDS011;55785;47.946;20.540;2023-05-03T09:04:11;2.80;;;2.00;;
67585;SDS011;55785;47.946;20.540;2023-05-03T09:06:37;3.03;;;2.05;;
67585;SDS011;55785;47.946;20.540;2023-05-03T09:09:03;4.45;;;2.00;;
67585;SDS011;55785;47.946;20.540;2023-05-03T09:11:30;2.63;;;2.00;;
67585;SDS011;55785;47.946;20.540;2023-05-03T09:14:13;4.28;;;2.13;;
67585;SDS011;55785;47.946;20.540;2023-05-03T09:16:40;3.40;;;2.10;;
67585;SDS011;55785;47.946;20.540;2023-05-03T09:19:07;4.93;;;1.83;;
67585;SDS011;55785;47.946;20.540;2023-05-03T09:21:33;3.95;;;1.95;;
67585;SDS011;55785;47.946;20.540;2023-05-03T09:23:59;3.13;;;1.90;;
67585;SDS011;55785;47.946;20.540;2023-05-03T09:28:52;3.25;;;2.00;;
67585;SDS011;55785;47.946;20.540;2023-05-03T09:31:18;2.58;;;2.00;;
67585;SDS011;55785;47.946;20.540;2023-05-03T09:33:43;2.35;;;1.77;;
67585;SDS011;55785;47.946;20.540;2023-05-03T09:36:09;4.97;;;2.13;;
67585;SDS011;55785;47.946;20.540;2023-05-03T09:38:34;2.70;;;1.90;;
67585;SDS011;55785;47.946;20.540;2023-05-03T09:41:00;4.20;;;2.00;;
67585;SDS011;55785;47.946;20.540;2023-05-03T09:43:26;2.95;;;2.10;;
67585;SDS011;55785;47.946;20.540;2023-05-03T09:45:51;2.85;;;1.90;;
67585;SDS011;55785;47.946;20.540;2023-05-03T09:48:30;2.63;;;2.05;;
67585;SDS011;55785;47.946;20.540;2023-05-03T09:50:56;3.72;;;2.30;;
67585;SDS011;55785;47.946;20.540;2023-05-03T09:53:21;2.60;;;2.00;;
67585;SDS011;55785;47.946;20.540;2023-05-03T09:55:47;3.75;;;2.15;;
67585;SDS011;55785;47.946;20.540;2023-05-03T09:58:13;5.13;;;2.10;;
67585;SDS011;55785;47.946;20.540;2023-05-03T10:00:40;3.78;;;2.10;;
67585;SDS011;55785;47.946;20.540;2023-05-03T10:03:09;5.85;;;2.30;;
67585;SDS011;55785;47.946;20.540;2023-05-03T10:05:39;3.22;;;2.30;;
67585;SDS011;55785;47.946;20.540;2023-05-03T10:08:09;2.55;;;2.03;;
67585;SDS011;55785;47.946;20.540;2023-05-03T10:10:38;4.20;;;2.28;;
67585;SDS011;55785;47.946;20.540;2023-05-03T10:13:08;4.63;;;2.30;;
67585;SDS011;55785;47.946;20.540;2023-05-03T10:15:33;5.22;;;2.30;;
67585;SDS011;55785;47.946;20.540;2023-05-03T10:18:00;4.30;;;2.00;;
67585;SDS011;55785;47.946;20.540;2023-05-03T10:20:31;2.67;;;2.08;;
67585;SDS011;55785;47.946;20.540;2023-05-03T10:25:28;3.72;;;2.53;;
67585;SDS011;55785;47.946;20.540;2023-05-03T10:28:04;3.95;;;2.28;;
67585;SDS011;55785;47.946;20.540;2023-05-03T10:30:37;5.40;;;2.10;;
67585;SDS011;55785;47.946;20.540;2023-05-03T10:35:38;3.45;;;2.20;;
67585;SDS011;55785;47.946;20.540;2023-05-03T10:38:14;3.47;;;2.30;;
67585;SDS011;55785;47.946;20.540;2023-05-03T10:40:46;4.68;;;2.40;;
67585;SDS011;55785;47.946;20.540;2023-05-03T10:45:54;3.00;;;2.30;;
67585;SDS011;55785;47.946;20.540;2023-05-03T10:48:25;4.97;;;2.63;;
67585;SDS011;55785;47.946;20.540;2023-05-03T10:50:51;3.40;;;2.40;;
67585;SDS011;55785;47.946;20.540;2023-05-03T10:53:35;7.10;;;2.50;;
67585;SDS011;55785;47.946;20.540;2023-05-03T10:56:03;3.28;;;2.42;;
67585;SDS011;55785;47.946;20.540;2023-05-03T10:58:31;4.97;;;2.60;;
67585;SDS011;55785;47.946;20.540;2023-05-03T11:01:01;5.32;;;2.53;;
67585;SDS011;55785;47.946;20.540;2023-05-03T11:05:53;4.85;;;2.40;;
67585;SDS011;55785;47.946;20.540;2023-05-03T11:08:21;2.90;;;2.42;;
67585;SDS011;55785;47.946;20.540;2023-05-03T11:10:48;4.63;;;2.58;;
67585;SDS011;55785;47.946;20.540;2023-05-03T11:13:20;3.35;;;2.15;;
67585;SDS011;55785;47.946;20.540;2023-05-03T11:15:45;3.08;;;2.33;;
67585;SDS011;55785;47.946;20.540;2023-05-03T11:18:10;3.60;;;2.70;;
67585;SDS011;55785;47.946;20.540;2023-05-03T11:20:36;4.75;;;2.58;;
67585;SDS011;55785;47.946;20.540;2023-05-03T11:23:02;4.47;;;2.65;;
67585;SDS011;55785;47.946;20.540;2023-05-03T11:25:28;4.95;;;2.63;;
67585;SDS011;55785;47.946;20.540;2023-05-03T11:27:53;5.22;;;2.90;;
67585;SDS011;55785;47.946;20.540;2023-05-03T11:30:19;3.10;;;2.53;;
67585;SDS011;55785;47.946;20.540;2023-05-03T11:32:44;3.58;;;2.30;;
67585;SDS011;55785;47.946;20.540;2023-05-03T11:35:12;6.50;;;2.60;;
67585;SDS011;55785;47.946;20.540;2023-05-03T11:37:38;3.55;;;2.25;;
67585;SDS011;55785;47.946;20.540;2023-05-03T11:40:05;3.67;;;2.60;;
67585;SDS011;55785;47.946;20.540;2023-05-03T11:42:31;3.90;;;2.50;;
67585;SDS011;55785;47.946;20.540;2023-05-03T11:44:56;3.72;;;2.40;;
67585;SDS011;55785;47.946;20.540;2023-05-03T11:47:22;4.00;;;2.90;;
67585;SDS011;55785;47.946;20.540;2023-05-03T11:49:54;6.53;;;2.78;;
67585;SDS011;55785;47.946;20.540;2023-05-03T11:52:21;7.03;;;2.70;;
67585;SDS011;55785;47.946;20.540;2023-05-03T11:54:48;6.40;;;2.85;;
67585;SDS011;55785;47.946;20.540;2023-05-03T11:57:14;8.52;;;3.05;;
67585;SDS011;55785;47.946;20.540;2023-05-03T11:59:40;4.40;;;2.78;;
67585;SDS011;55785;47.946;20.540;2023-05-03T12:02:06;6.32;;;2.83;;
67585;SDS011;55785;47.946;20.540;2023-05-03T12:04:33;6.03;;;2.70;;
67585;SDS011;55785;47.946;20.540;2023-05-03T12:06:58;6.10;;;2.60;;
67585;SDS011;55785;47.946;20.540;2023-05-03T12:09:24;3.35;;;2.50;;
67585;SDS011;55785;47.946;20.540;2023-05-03T12:11:50;9.60;;;3.40;;
67585;SDS011;55785;47.946;20.540;2023-05-03T12:14:15;6.53;;;3.10;;
67585;SDS011;55785;47.946;20.540;2023-05-03T12:16:48;10.63;;;2.95;;
67585;SDS011;55785;47.946;20.540;2023-05-03T12:19:24;3.03;;;2.50;;
67585;SDS011;55785;47.946;20.540;2023-05-03T12:21:51;5.10;;;3.08;;
67585;SDS011;55785;47.946;20.540;2023-05-03T12:24:17;5.15;;;2.92;;
67585;SDS011;55785;47.946;20.540;2023-05-03T12:26:43;7.38;;;2.80;;
67585;SDS011;55785;47.946;20.540;2023-05-03T12:29:11;4.88;;;2.83;;
67585;SDS011;55785;47.946;20.540;2023-05-03T12:31:36;6.10;;;3.22;;
67585;SDS011;55785;47.946;20.540;2023-05-03T12:34:02;7.10;;;3.42;;
67585;SDS011;55785;47.946;20.540;2023-05-03T12:36:28;4.85;;;3.15;;
67585;SDS011;55785;47.946;20.540;2023-05-03T12:38:54;7.03;;;3.17;;
67585;SDS011;55785;47.946;20.540;2023-05-03T12:41:19;7.38;;;3.15;;
67585;SDS011;55785;47.946;20.540;2023-05-03T12:43:44;6.30;;;2.80;;
67585;SDS011;55785;47.946;20.540;2023-05-03T12:46:10;4.18;;;2.75;;
67585;SDS011;55785;47.946;20.540;2023-05-03T12:48:35;4.03;;;2.90;;
67585;SDS011;55785;47.946;20.540;2023-05-03T12:51:00;4.63;;;2.80;;
67585;SDS011;55785;47.946;20.540;2023-05-03T12:53:26;5.78;;;2.80;;
67585;SDS011;55785;47.946;20.540;2023-05-03T12:55:51;4.63;;;2.67;;
67585;SDS011;55785;47.946;20.540;2023-05-03T12:58:17;4.55;;;2.80;;
67585;SDS011;55785;47.946;20.540;2023-05-03T13:00:43;6.35;;;2.70;;
67585;SDS011;55785;47.946;20.540;2023-05-03T13:03:09;6.20;;;2.70;;
67585;SDS011;55785;47.946;20.540;2023-05-03T13:05:34;6.47;;;2.80;;
67585;SDS011;55785;47.946;20.540;2023-05-03T13:08:00;2.88;;;2.40;;
67585;SDS011;55785;47.946;20.540;2023-05-03T13:10:25;5.72;;;2.55;;
67585;SDS011;55785;47.946;20.540;2023-05-03T13:12:51;7.00;;;2.72;;
67585;SDS011;55785;47.946;20.540;2023-05-03T13:15:16;3.47;;;2.60;;
67585;SDS011;55785;47.946;20.540;2023-05-03T13:17:41;4.20;;;2.50;;
67585;SDS011;55785;47.946;20.540;2023-05-03T13:20:07;3.90;;;2.25;;
67585;SDS011;55785;47.946;20.540;2023-05-03T13:22:32;5.10;;;2.60;;
67585;SDS011;55785;47.946;20.540;2023-05-03T13:24:58;5.97;;;2.72;;
67585;SDS011;55785;47.946;20.540;2023-05-03T13:27:23;5.80;;;2.75;;
67585;SDS011;55785;47.946;20.540;2023-05-03T13:29:49;6.43;;;2.90;;
67585;SDS011;55785;47.946;20.540;2023-05-03T13:32:14;5.63;;;2.90;;
67585;SDS011;55785;47.946;20.540;2023-05-03T13:34:39;4.65;;;2.72;;
67585;SDS011;55785;47.946;20.540;2023-05-03T13:37:05;6.05;;;3.10;;
67585;SDS011;55785;47.946;20.540;2023-05-03T13:39:30;4.05;;;2.80;;
67585;SDS011;55785;47.946;20.540;2023-05-03T13:41:56;4.80;;;3.05;;
67585;SDS011;55785;47.946;20.540;2023-05-03T13:44:21;5.30;;;3.00;;
67585;SDS011;55785;47.946;20.540;2023-05-03T13:46:46;3.95;;;2.63;;
67585;SDS011;55785;47.946;20.540;2023-05-03T13:49:12;4.15;;;2.75;;
67585;SDS011;55785;47.946;20.540;2023-05-03T13:51:37;5.63;;;3.00;;
67585;SDS011;55785;47.946;20.540;2023-05-03T13:54:03;5.65;;;2.75;;
67585;SDS011;55785;47.946;20.540;2023-05-03T13:56:30;5.03;;;2.53;;
67585;SDS011;55785;47.946;20.540;2023-05-03T13:58:55;4.75;;;2.65;;
67585;SDS011;55785;47.946;20.540;2023-05-03T14:01:24;3.85;;;2.90;;
67585;SDS011;55785;47.946;20.540;2023-05-03T14:03:51;4.20;;;2.50;;
67585;SDS011;55785;47.946;20.540;2023-05-03T14:06:17;5.82;;;2.75;;
67585;SDS011;55785;47.946;20.540;2023-05-03T14:08:43;3.90;;;2.60;;
67585;SDS011;55785;47.946;20.540;2023-05-03T14:11:15;5.70;;;2.70;;
67585;SDS011;55785;47.946;20.540;2023-05-03T14:13:41;4.45;;;2.50;;
67585;SDS011;55785;47.946;20.540;2023-05-03T14:16:10;6.90;;;2.78;;
67585;SDS011;55785;47.946;20.540;2023-05-03T14:18:40;4.88;;;2.70;;
67585;SDS011;55785;47.946;20.540;2023-05-03T14:21:05;3.55;;;2.38;;
67585;SDS011;55785;47.946;20.540;2023-05-03T14:23:30;4.82;;;2.30;;
67585;SDS011;55785;47.946;20.540;2023-05-03T14:25:56;7.57;;;2.40;;
67585;SDS011;55785;47.946;20.540;2023-05-03T14:28:21;2.55;;;2.00;;
67585;SDS011;55785;47.946;20.540;2023-05-03T14:30:46;4.60;;;2.22;;
67585;SDS011;55785;47.946;20.540;2023-05-03T14:33:12;3.85;;;2.30;;
67585;SDS011;55785;47.946;20.540;2023-05-03T14:35:38;3.58;;;2.30;;
67585;SDS011;55785;47.946;20.540;2023-05-03T14:38:04;2.80;;;2.05;;
67585;SDS011;55785;47.946;20.540;2023-05-03T14:40:29;6.25;;;2.13;;
67585;SDS011;55785;47.946;20.540;2023-05-03T14:42:55;4.55;;;2.20;;
67585;SDS011;55785;47.946;20.540;2023-05-03T14:45:20;7.80;;;2.63;;
67585;SDS011;55785;47.946;20.540;2023-05-03T14:47:45;2.58;;;2.10;;
67585;SDS011;55785;47.946;20.540;2023-05-03T14:50:11;4.78;;;2.15;;